Terminal Aerodrome Forecast
Issued by NWS

Home | Current Version | Previous Version | Text Only | Print | Product List | Glossary On
Versions: 1 2 3 4 5 6 7 8 9 10 11 12 13 14 15 16
152
FTUS42 KTAE 300520
TAFVLD
TAF
KVLD 300520Z 3006/3106 VRB03KT P6SM SCT250
     FM301100 00000KT 6SM BR BKN015
     FM301300 34004KT P6SM SCT030 BKN250
     FM302100 34006KT 6SM -SHRA VCTS BKN040CB
     FM310100 VRB03KT P6SM BKN250=

USA.gov is the U.S. government's official web portal to all federal, state and local government web resources and services.